Sleepy Eye, Minnesota
Current Conditions -  °F | °C
As of 2:33 PM on Monday 22 Dec 2014 (Local Time) from KULM Reporting Station
Moderate Rain Moderate Rain  
Wind Chill: 29°   Ceiling: 700
Heat Index: 37°   Visibility: 5mi
Dew Point: 37°   Wind: 15mph
Humidity: 100%   Direction: 130°SE
Pressure: 29.51"   Gusts: NA
Location:  44.3°N, 94.72°W
Report Text: KULM 222033Z AUTO 13013KT 5SM RA OVC007 03/03 A2951 RMK AO2 P0001
Loading
Personal Weather Stations






























Interactive Weather Map New forecast layout! Learn more

10-Day Weather Forecast

Advertisements
Track Severe Weather on mobile